McComb, MS

2:21 PM CDT on September 18, 2014 (GMT -0500)
City of McComb | Change Station
CLOSE
Current Station
Personal Weather Station
Location: McComb, MS
Elevation: 456 ft
Nearby Weather Stations

Elev 456 ft 31.25 °N, 90.46 °W | Updated 1 second ago

Mostly Cloudy
Mostly Cloudy
86.9 °F
Feels Like 94 °F
N
0.7
Wind Variable Wind from NW
Gusts 1.6 mph

Today
High -- | Low -- °F
--% Chance of Precip.
Yesterday
High -- | Low -- °F
Precip. -- in
6:47 AM 7:03 PM
Waning Crescent, 25% visible
Pressure 29.91 in
Visibility 10.0 miles
Clouds Clear
Heat Index 94 °F
Dew Point 72 °F
Humidity 62%
Rainfall 0.00 in
Snow Depth Not available.
UV 9 out of 12
Pollen 8.30 out of 12
Air Quality Not available.
Flu Activity Not available.
METAR KMCB 181853Z AUTO 08003KT 10SM CLR 28/23 A2993 RMK AO2 SLP129 T02830228

More Conditions Fewer Conditions

Pressure 29.91 in
Visibility 10.0 miles
Clouds Clear
Heat Index 94 °F
Dew Point 72 °F
Humidity 62%
Rainfall 0.00 in
Snow Depth Not available.
UV 9 out of 12
Pollen 8.30 out of 12
Air Quality Not available.
Flu Activity Not available.
METAR KMCB 181853Z AUTO 08003KT 10SM CLR 28/23 A2993 RMK AO2 SLP129 T02830228

More Conditions Fewer Conditions

10-Day Weather Forecast

Almanac

Astronomy

Sep. 18, 2014 Rise Set
Actual Time 6:47 AM CDT 7:03 PM CDT
Civil Twilight 6:23 AM CDT 7:27 PM CDT
Nautical Twilight 5:55 AM CDT 7:56 PM CDT
Astronomical Twilight 5:26 AM CDT 8:24 PM CDT
Moon 1:54 AM CDT 3:41 PM CDT
Length of Visible Light 13h 04m
Length of Day
12h 15m
Tomorrow will be 1m 54s shorter.
Waning Crescent, 25% of the Moon is Illuminated
Today
Waning Crescent
Sep 24
New
Oct 1
First Quarter
Oct 8
Full
Oct 15
Last Quarter

Today's Extremes

State Highs State Lows

Community

WunderPhotos

Upload Photos

1,754,421 photos uploaded!

Nearby

Snow Depth

Station Depth Elevation
No new snow has been reported.

Earthquake Activity

City Distance Mag. Time & Date
No recent earthquake activity has been reported nearby.
Minimum magnitude displayed is 2.5.

Coastal Water Temperatures

Place Temperature
No Stations Reporting

Nearby Weather Stations